Time;durP1;ratioP1;P1;durP2;ratioP2;P2;SDS_P1;SDS_P2;PMS_P1;PMS_P2;Temp;Humidity;BMP_temperature;BMP_pressure;BME280_temperature;BME280_humidity;BME280_pressure;Samples;Min_cycle;Max_cycle;Signal;HPM_P1;HPM_P2
2024/01/07 00:00:34;;;;;;;24.83;14.10;;;4.20;99.90;;;;;;5013338;28;20167;-81
2024/01/07 00:03:00;;;;;;;25.17;14.43;;;4.10;99.90;;;;;;5016858;28;20174;-81
2024/01/07 00:05:26;;;;;;;25.33;14.90;;;4.10;99.90;;;;;;5015508;28;20199;-81
2024/01/07 00:07:51;;;;;;;24.17;13.97;;;4.00;99.90;;;;;;5017037;28;20179;-81
2024/01/07 00:10:17;;;;;;;23.67;13.67;;;4.00;99.90;;;;;;5015690;28;20177;-81
2024/01/07 00:12:43;;;;;;;24.63;14.00;;;4.00;99.90;;;;;;5015834;28;20314;-81
2024/01/07 00:15:09;;;;;;;24.30;14.43;;;4.00;99.90;;;;;;5015944;28;20288;-80
2024/01/07 00:17:35;;;;;;;27.83;14.10;;;4.00;99.90;;;;;;5016782;28;20286;-81
2024/01/07 00:20:01;;;;;;;22.77;13.40;;;3.90;99.90;;;;;;5015149;28;20182;-81
2024/01/07 00:22:26;;;;;;;23.83;12.50;;;3.80;99.90;;;;;;5016467;28;20178;-81
2024/01/07 00:24:52;;;;;;;23.73;12.17;;;3.80;99.90;;;;;;5015035;28;20236;-81
2024/01/07 00:27:17;;;;;;;23.03;12.80;;;3.80;99.90;;;;;;5016186;28;20179;-81
2024/01/07 00:29:43;;;;;;;20.57;12.17;;;3.80;99.90;;;;;;5016617;28;20170;-81
2024/01/07 00:32:08;;;;;;;19.10;11.50;;;3.80;99.90;;;;;;5014841;28;20171;-81
2024/01/07 00:34:34;;;;;;;18.23;11.00;;;3.80;99.90;;;;;;5014869;28;20199;-81
2024/01/07 00:37:00;;;;;;;21.10;11.53;;;3.80;99.90;;;;;;5016489;28;20214;-81
2024/01/07 00:39:25;;;;;;;17.77;9.80;;;3.80;99.90;;;;;;5016130;28;20213;-81
2024/01/07 00:41:51;;;;;;;20.43;10.40;;;3.80;99.90;;;;;;5014817;28;20174;-81
2024/01/07 00:44:16;;;;;;;19.73;10.20;;;3.60;99.90;;;;;;5015906;28;20194;-80
2024/01/07 00:46:42;;;;;;;19.83;10.17;;;3.50;99.90;;;;;;5014816;28;20182;-80
2024/01/07 00:49:08;;;;;;;21.43;11.07;;;3.40;99.90;;;;;;5016432;28;20277;-81
2024/01/07 00:51:33;;;;;;;17.80;10.30;;;3.40;99.90;;;;;;5016137;28;20187;-81
2024/01/07 00:53:59;;;;;;;19.37;10.47;;;3.40;99.90;;;;;;5015894;28;20181;-81
2024/01/07 00:56:28;;;;;;;18.83;10.33;;;3.30;99.90;;;;;;5014776;28;20178;-81
2024/01/07 00:58:53;;;;;;;19.10;10.67;;;3.30;99.90;;;;;;5015682;28;20209;-81
2024/01/07 01:01:19;;;;;;;23.30;11.87;;;3.20;99.90;;;;;;5014727;28;20205;-81
2024/01/07 01:03:44;;;;;;;20.27;11.27;;;3.20;99.90;;;;;;5014552;28;20178;-80
2024/01/07 01:06:11;;;;;;;22.23;10.93;;;3.30;99.90;;;;;;5014314;28;20697;-81
2024/01/07 01:08:36;;;;;;;23.20;11.67;;;3.30;99.90;;;;;;5015898;28;20529;-80
2024/01/07 01:11:02;;;;;;;20.77;11.03;;;3.30;99.90;;;;;;5013769;28;20197;-81
2024/01/07 01:13:28;;;;;;;22.93;11.93;;;3.20;99.90;;;;;;5014579;28;20189;-82
2024/01/07 01:15:55;;;;;;;21.63;11.40;;;3.20;99.90;;;;;;5014476;28;20200;-81
2024/01/07 01:18:20;;;;;;;18.77;10.87;;;3.30;99.90;;;;;;5014263;28;20276;-81
2024/01/07 01:20:46;;;;;;;20.97;10.67;;;3.30;99.90;;;;;;5015389;28;20589;-81
2024/01/07 01:23:12;;;;;;;19.90;11.20;;;3.20;99.90;;;;;;5015653;28;20178;-81
2024/01/07 01:25:39;;;;;;;21.07;11.20;;;3.20;99.90;;;;;;5014014;28;20201;-81
2024/01/07 01:28:05;;;;;;;20.00;11.47;;;3.20;99.90;;;;;;5013943;28;20181;-81
2024/01/07 01:30:31;;;;;;;19.20;10.50;;;3.10;99.90;;;;;;5015369;28;20229;-81
2024/01/07 01:32:57;;;;;;;21.30;11.40;;;3.20;99.90;;;;;;5015146;28;20244;-80
2024/01/07 01:35:23;;;;;;;22.03;11.47;;;3.20;99.90;;;;;;5015552;28;20240;-81
2024/01/07 01:37:48;;;;;;;22.40;11.40;;;3.10;99.90;;;;;;5015356;28;20295;-82
2024/01/07 01:40:16;;;;;;;22.20;10.83;;;3.10;99.90;;;;;;5015251;28;20674;-81
2024/01/07 01:42:47;;;;;;;20.33;10.47;;;3.20;99.90;;;;;;5014161;28;20317;-80
2024/01/07 01:45:14;;;;;;;23.33;11.37;;;3.20;99.90;;;;;;5014728;28;20220;-80
2024/01/07 01:47:40;;;;;;;23.17;11.40;;;3.10;99.90;;;;;;5013934;28;20179;-80
2024/01/07 01:50:06;;;;;;;21.47;10.97;;;3.10;99.90;;;;;;5015175;28;20308;-80
2024/01/07 01:52:32;;;;;;;25.10;11.37;;;3.10;99.90;;;;;;5013651;28;20193;-81
2024/01/07 01:54:59;;;;;;;22.67;11.53;;;3.00;99.90;;;;;;5015015;28;20201;-81
2024/01/07 01:57:36;;;;;;;22.30;11.33;;;3.00;99.90;;;;;;5013426;28;20260;-80
2024/01/07 02:00:05;;;;;;;24.87;12.80;;;3.00;99.90;;;;;;5013717;28;20202;-81
2024/01/07 02:02:34;;;;;;;23.10;11.10;;;2.90;99.90;;;;;;5014061;28;20178;-81
2024/01/07 02:05:01;;;;;;;24.87;11.43;;;2.90;99.90;;;;;;5014614;28;20287;-80
2024/01/07 02:07:28;;;;;;;24.17;12.00;;;2.90;99.90;;;;;;5014314;28;20165;-81
2024/01/07 02:09:53;;;;;;;22.43;11.43;;;2.80;99.90;;;;;;5013591;28;20172;-82
2024/01/07 02:12:19;;;;;;;22.27;11.40;;;2.80;99.90;;;;;;5012965;28;20176;-81
2024/01/07 02:14:44;;;;;;;22.73;11.90;;;2.80;99.90;;;;;;5013107;28;20242;-81
2024/01/07 02:17:10;;;;;;;22.20;11.97;;;2.80;99.90;;;;;;5014697;28;20209;-80
2024/01/07 02:19:36;;;;;;;22.43;11.90;;;2.80;99.90;;;;;;5014468;28;20206;-81
2024/01/07 02:22:01;;;;;;;19.70;11.13;;;2.80;99.90;;;;;;5014296;28;20704;-80
2024/01/07 02:24:27;;;;;;;21.87;11.30;;;2.80;99.90;;;;;;5013455;28;20225;-81
2024/01/07 02:26:53;;;;;;;19.53;11.13;;;2.70;99.90;;;;;;5013446;28;20205;-81
2024/01/07 02:29:18;;;;;;;20.60;11.03;;;2.70;99.90;;;;;;5014141;28;20173;-81
2024/01/07 02:31:44;;;;;;;19.03;11.17;;;2.80;99.90;;;;;;5012700;28;20212;-80
2024/01/07 02:34:10;;;;;;;17.13;10.27;;;2.90;99.90;;;;;;5012990;28;20205;-81
2024/01/07 02:36:36;;;;;;;19.50;10.63;;;2.90;99.90;;;;;;5013299;28;20186;-81
2024/01/07 02:39:01;;;;;;;19.87;9.63;;;2.90;99.90;;;;;;5013819;28;20279;-81
2024/01/07 02:41:33;;;;;;;19.53;10.43;;;3.00;99.90;;;;;;5012929;28;20175;-81
2024/01/07 02:43:59;;;;;;;18.47;10.67;;;2.90;99.90;;;;;;5012889;28;20213;-81
2024/01/07 02:46:24;;;;;;;17.50;10.20;;;2.90;99.90;;;;;;5013878;28;20594;-81
2024/01/07 02:48:50;;;;;;;16.17;9.47;;;2.70;99.90;;;;;;5013940;28;20258;-81
2024/01/07 02:51:15;;;;;;;16.97;10.30;;;2.80;99.90;;;;;;5012637;28;20177;-81
2024/01/07 02:53:41;;;;;;;17.57;10.17;;;2.70;99.90;;;;;;5013981;28;20177;-82
2024/01/07 02:56:08;;;;;;;16.97;9.20;;;2.60;99.90;;;;;;5013894;28;20531;-83
2024/01/07 02:58:34;;;;;;;16.47;9.10;;;2.70;99.90;;;;;;5012423;28;20228;-80
2024/01/07 03:01:00;;;;;;;16.33;9.10;;;2.60;99.90;;;;;;5014051;28;20176;-81
2024/01/07 03:03:25;;;;;;;17.53;9.33;;;2.50;99.90;;;;;;5013570;28;20178;-80
2024/01/07 03:05:51;;;;;;;20.60;9.60;;;2.50;99.90;;;;;;5012122;28;20197;-81
2024/01/07 03:08:18;;;;;;;17.57;9.70;;;2.50;99.90;;;;;;5013476;28;20194;-81
2024/01/07 03:10:43;;;;;;;15.87;8.87;;;2.40;99.90;;;;;;5013533;28;20272;-83
2024/01/07 03:13:09;;;;;;;18.07;8.60;;;2.30;99.90;;;;;;5013440;28;20260;-81
2024/01/07 03:15:34;;;;;;;15.10;8.50;;;2.30;99.90;;;;;;5012080;28;20198;-80
2024/01/07 03:18:00;;;;;;;17.03;8.33;;;2.30;99.90;;;;;;5013511;28;20774;-81
2024/01/07 03:20:26;;;;;;;17.30;8.40;;;2.30;99.90;;;;;;5012318;28;20223;-81
2024/01/07 03:22:51;;;;;;;15.37;8.10;;;2.20;99.90;;;;;;5013760;28;20183;-81
2024/01/07 03:25:17;;;;;;;15.43;7.70;;;2.10;99.90;;;;;;5013410;28;20204;-81
2024/01/07 03:27:42;;;;;;;14.43;7.90;;;2.10;99.90;;;;;;5013703;28;20649;-81
2024/01/07 03:30:09;;;;;;;13.83;7.13;;;2.10;99.90;;;;;;5013511;28;20182;-81
2024/01/07 03:32:35;;;;;;;10.63;7.03;;;2.10;99.90;;;;;;5013267;28;20173;-81
2024/01/07 03:35:01;;;;;;;14.50;7.57;;;2.10;99.90;;;;;;5012215;28;20295;-81
2024/01/07 03:37:26;;;;;;;14.10;7.90;;;2.00;99.90;;;;;;5017863;28;20187;-81
2024/01/07 03:39:52;;;;;;;14.80;7.50;;;2.00;99.90;;;;;;5017242;28;20188;-83
2024/01/07 03:42:18;;;;;;;12.77;7.37;;;1.90;99.90;;;;;;5015778;28;20184;-81
2024/01/07 03:44:43;;;;;;;15.97;7.63;;;1.90;99.90;;;;;;5017078;28;20233;-81
2024/01/07 03:47:09;;;;;;;14.70;7.37;;;1.80;99.90;;;;;;5016970;28;20168;-81
2024/01/07 03:49:37;;;;;;;12.33;7.60;;;1.80;99.90;;;;;;5017238;28;20180;-81
2024/01/07 03:52:03;;;;;;;13.23;7.23;;;1.80;99.90;;;;;;5017390;28;20183;-81
2024/01/07 03:54:29;;;;;;;13.23;7.30;;;1.90;99.90;;;;;;5016673;28;20202;-81
2024/01/07 03:56:54;;;;;;;11.50;6.83;;;1.90;99.90;;;;;;5016149;28;20188;-83
2024/01/07 03:59:22;;;;;;;14.20;7.50;;;1.80;99.90;;;;;;5017189;28;20198;-80
2024/01/07 04:01:47;;;;;;;14.77;8.00;;;1.70;99.90;;;;;;5017040;28;20176;-80
2024/01/07 04:04:13;;;;;;;12.87;7.27;;;1.70;99.90;;;;;;5016950;28;20571;-80
2024/01/07 04:06:39;;;;;;;15.20;8.57;;;1.60;99.90;;;;;;5016957;28;20171;-81
2024/01/07 04:09:04;;;;;;;13.97;7.43;;;1.60;99.90;;;;;;5015764;28;20179;-80
2024/01/07 04:11:30;;;;;;;16.10;7.97;;;1.50;99.90;;;;;;5016901;28;20175;-81
2024/01/07 04:13:55;;;;;;;14.57;7.93;;;1.50;99.90;;;;;;5016780;28;20653;-81
2024/01/07 04:16:21;;;;;;;14.07;7.50;;;1.40;99.90;;;;;;5015313;28;20198;-80
2024/01/07 04:18:47;;;;;;;13.47;7.83;;;1.40;99.90;;;;;;5016574;28;20233;-80
2024/01/07 04:21:13;;;;;;;15.27;8.13;;;1.30;99.90;;;;;;5016314;28;20537;-81
2024/01/07 04:23:40;;;;;;;14.63;7.10;;;1.20;99.90;;;;;;5015105;28;20179;-81
2024/01/07 04:26:09;;;;;;;15.70;8.27;;;1.20;99.90;;;;;;5016246;28;20194;-81
2024/01/07 04:28:34;;;;;;;15.27;8.10;;;1.20;99.90;;;;;;5015309;28;20183;-81
2024/01/07 04:31:00;;;;;;;16.93;8.23;;;1.10;99.90;;;;;;5016110;28;20229;-81
2024/01/07 04:33:25;;;;;;;13.73;7.87;;;1.00;99.90;;;;;;5014968;28;20189;-81
2024/01/07 04:35:51;;;;;;;17.00;8.53;;;0.90;99.90;;;;;;5014799;28;20694;-81
2024/01/07 04:38:17;;;;;;;16.93;8.60;;;1.00;99.90;;;;;;5016251;28;20210;-81
2024/01/07 04:40:42;;;;;;;15.83;8.40;;;1.10;99.90;;;;;;5016534;28;20171;-81
2024/01/07 04:43:08;;;;;;;14.90;8.83;;;1.10;99.90;;;;;;5015941;28;20265;-82
2024/01/07 04:45:33;;;;;;;17.37;8.67;;;1.20;99.90;;;;;;5015013;28;20730;-81
2024/01/07 04:47:59;;;;;;;17.93;9.43;;;1.10;99.90;;;;;;5014106;28;20218;-81
2024/01/07 04:50:24;;;;;;;19.50;9.47;;;1.10;99.90;;;;;;5014562;28;20183;-81
2024/01/07 04:52:50;;;;;;;17.77;9.03;;;1.00;99.90;;;;;;5015474;28;20586;-81
2024/01/07 04:55:16;;;;;;;16.10;8.27;;;1.10;99.90;;;;;;5014324;28;20223;-81
2024/01/07 04:57:41;;;;;;;16.60;8.83;;;1.10;99.90;;;;;;5014385;28;20665;-81
2024/01/07 05:00:07;;;;;;;17.33;8.73;;;1.00;99.90;;;;;;5014761;28;20175;-81
2024/01/07 05:02:33;;;;;;;17.27;9.40;;;1.00;99.90;;;;;;5014547;28;20266;-81
2024/01/07 05:04:58;;;;;;;19.57;9.87;;;1.00;99.90;;;;;;5015844;28;20203;-81
2024/01/07 05:07:24;;;;;;;17.87;9.47;;;1.00;99.90;;;;;;5015648;28;20183;-81
2024/01/07 05:09:50;;;;;;;17.10;9.50;;;1.10;99.90;;;;;;5014670;28;20252;-81
2024/01/07 05:12:15;;;;;;;15.57;8.70;;;1.10;99.90;;;;;;5015759;28;20182;-81
2024/01/07 05:14:42;;;;;;;16.00;9.43;;;1.10;99.90;;;;;;5015565;28;20198;-81
2024/01/07 05:17:08;;;;;;;15.43;9.37;;;1.20;99.90;;;;;;5015412;28;20178;-81
2024/01/07 05:19:34;;;;;;;15.93;8.53;;;1.10;99.90;;;;;;5014124;28;20214;-81
2024/01/07 05:21:59;;;;;;;14.27;8.10;;;1.00;99.90;;;;;;5015628;28;20178;-81
2024/01/07 05:24:25;;;;;;;13.03;8.00;;;1.00;99.90;;;;;;5015345;28;20680;-81
2024/01/07 05:26:51;;;;;;;12.03;7.80;;;1.00;99.90;;;;;;5014026;28;20186;-81
2024/01/07 05:29:16;;;;;;;12.80;8.10;;;0.90;99.90;;;;;;5015167;28;20208;-81
2024/01/07 05:31:42;;;;;;;11.47;7.90;;;0.80;99.90;;;;;;5013869;28;20179;-81
2024/01/07 05:34:07;;;;;;;11.70;7.77;;;0.90;99.90;;;;;;5013764;28;20194;-81
2024/01/07 05:36:33;;;;;;;13.17;7.80;;;0.90;99.90;;;;;;5013762;28;20186;-82
2024/01/07 05:38:59;;;;;;;12.47;7.80;;;0.80;99.90;;;;;;5014316;28;20213;-81
2024/01/07 05:41:25;;;;;;;11.40;6.90;;;0.80;99.90;;;;;;5014298;28;20182;-81
2024/01/07 05:43:51;;;;;;;12.23;7.40;;;0.80;99.90;;;;;;5014845;28;20548;-81
2024/01/07 05:46:16;;;;;;;9.83;6.90;;;0.80;99.90;;;;;;5014963;28;20571;-81
2024/01/07 05:48:46;;;;;;;11.27;7.37;;;0.80;99.90;;;;;;5015051;28;20179;-81
2024/01/07 05:51:13;;;;;;;11.40;6.93;;;0.90;99.90;;;;;;5015159;28;20674;-80
2024/01/07 05:53:39;;;;;;;9.97;7.00;;;0.80;99.90;;;;;;5013689;28;20665;-81
2024/01/07 05:56:05;;;;;;;11.27;6.60;;;0.80;99.90;;;;;;5014577;28;20202;-81
2024/01/07 05:58:31;;;;;;;10.17;6.90;;;0.70;99.90;;;;;;5013724;28;20621;-81
2024/01/07 06:00:56;;;;;;;9.33;6.67;;;0.70;99.90;;;;;;5014666;28;20270;-81
2024/01/07 06:03:22;;;;;;;9.27;7.13;;;0.80;99.90;;;;;;5013490;28;20179;-82
2024/01/07 06:05:48;;;;;;;9.97;7.37;;;0.80;99.90;;;;;;5013076;28;20202;-81
2024/01/07 06:08:13;;;;;;;8.83;6.30;;;0.90;99.90;;;;;;5013574;28;20214;-81
2024/01/07 06:10:40;;;;;;;9.50;6.57;;;0.80;99.90;;;;;;5013380;28;20174;-81
2024/01/07 06:13:06;;;;;;;9.70;6.40;;;0.80;99.90;;;;;;5014411;28;20174;-81
2024/01/07 06:15:31;;;;;;;9.50;6.37;;;0.70;99.90;;;;;;5012843;28;20206;-81
2024/01/07 06:17:57;;;;;;;10.53;6.73;;;0.70;99.90;;;;;;5013407;28;20675;-81
2024/01/07 06:20:23;;;;;;;10.70;7.17;;;0.60;99.90;;;;;;5012113;28;20258;-82
2024/01/07 06:22:49;;;;;;;9.60;6.30;;;0.70;99.90;;;;;;5013441;28;20167;-81
2024/01/07 06:25:14;;;;;;;8.30;5.83;;;0.70;99.90;;;;;;5012079;28;20706;-83
2024/01/07 06:27:41;;;;;;;7.43;5.50;;;0.70;99.90;;;;;;5012222;28;20209;-81
2024/01/07 06:30:07;;;;;;;7.73;5.77;;;0.70;99.90;;;;;;5012528;28;20197;-81
2024/01/07 06:32:33;;;;;;;8.63;6.03;;;0.60;99.90;;;;;;5012033;28;20178;-82
2024/01/07 06:34:59;;;;;;;9.57;6.23;;;0.50;99.90;;;;;;5012316;28;20221;-82
2024/01/07 06:37:25;;;;;;;7.73;5.73;;;0.50;99.90;;;;;;5011773;28;20644;-82
2024/01/07 06:39:51;;;;;;;10.50;6.70;;;0.50;99.90;;;;;;5013111;28;20228;-81
2024/01/07 06:42:16;;;;;;;9.00;6.23;;;0.40;99.90;;;;;;5011841;28;20175;-79
2024/01/07 06:44:42;;;;;;;10.67;6.70;;;0.40;99.90;;;;;;5012992;28;20194;-82
2024/01/07 06:47:07;;;;;;;9.47;6.40;;;0.40;99.90;;;;;;5011576;28;20182;-83
2024/01/07 06:49:33;;;;;;;9.07;6.60;;;0.50;99.90;;;;;;5012909;28;20265;-84
2024/01/07 06:51:59;;;;;;;12.40;6.97;;;0.40;99.90;;;;;;5012635;28;20183;-82
2024/01/07 06:54:25;;;;;;;9.33;6.97;;;0.50;99.90;;;;;;5011751;28;20248;-82
2024/01/07 06:56:51;;;;;;;9.97;6.60;;;0.40;99.90;;;;;;5013038;28;20189;-82
2024/01/07 06:59:16;;;;;;;9.50;6.90;;;0.40;99.90;;;;;;5011332;28;20690;-83
2024/01/07 07:01:42;;;;;;;8.97;6.80;;;0.50;99.90;;;;;;5011238;28;20186;-84
2024/01/07 07:04:07;;;;;;;10.57;6.43;;;0.50;99.90;;;;;;5011340;28;20702;-84
2024/01/07 07:06:34;;;;;;;29.30;14.47;;;0.70;99.90;;;;;;5011338;28;20193;-83
2024/01/07 07:09:00;;;;;;;20.27;10.63;;;0.70;99.90;;;;;;5011166;28;20187;-81
2024/01/07 07:11:25;;;;;;;13.17;9.70;;;0.70;99.90;;;;;;5012600;28;20711;-81
2024/01/07 07:13:51;;;;;;;9.67;6.90;;;0.70;99.90;;;;;;5011392;28;20179;-84
2024/01/07 07:16:16;;;;;;;8.67;6.83;;;0.70;99.90;;;;;;5012441;28;20538;-83
2024/01/07 07:18:42;;;;;;;14.07;10.87;;;0.70;99.90;;;;;;5012432;28;20206;-84
2024/01/07 07:21:08;;;;;;;13.50;10.03;;;0.60;99.90;;;;;;5013018;28;20185;-81
2024/01/07 07:23:33;;;;;;;15.07;10.93;;;0.50;99.90;;;;;;5012999;28;20557;-83
2024/01/07 07:25:59;;;;;;;12.03;8.23;;;0.50;99.90;;;;;;5012927;28;20187;-83
2024/01/07 07:28:25;;;;;;;12.50;7.77;;;0.30;99.90;;;;;;5011452;28;20171;-82
2024/01/07 07:30:50;;;;;;;11.73;8.07;;;0.30;99.90;;;;;;5010955;28;20247;-85
2024/01/07 07:33:17;;;;;;;9.67;7.20;;;0.30;99.90;;;;;;5012410;28;20179;-83
2024/01/07 07:35:42;;;;;;;7.73;5.93;;;0.30;99.90;;;;;;5011815;28;20207;-80
2024/01/07 07:38:08;;;;;;;12.00;7.60;;;0.30;99.90;;;;;;5012744;28;20285;-83
2024/01/07 07:40:33;;;;;;;10.97;7.73;;;0.10;99.90;;;;;;5012224;28;20177;-82
2024/01/07 07:42:59;;;;;;;10.77;7.67;;;0.10;99.90;;;;;;5013388;28;20171;-84
2024/01/07 07:45:25;;;;;;;12.03;7.90;;;-0.10;99.90;;;;;;5010796;28;20301;-83
2024/01/07 07:47:50;;;;;;;11.33;7.30;;;-0.10;99.90;;;;;;5012371;28;20228;-83
2024/01/07 07:50:16;;;;;;;12.67;8.43;;;0.00;99.90;;;;;;5012162;28;20623;-83
2024/01/07 07:52:43;;;;;;;10.47;5.93;;;0.00;99.90;;;;;;5012306;28;20178;-85
2024/01/07 07:55:09;;;;;;;10.63;6.17;;;0.00;59.30;;;;;;5012727;28;20756;-79
2024/01/07 07:57:35;;;;;;;7.87;6.20;;;0.00;99.90;;;;;;5014582;28;20646;-80
2024/01/07 08:00:02;;;;;;;9.03;5.80;;;0.00;59.20;;;;;;5014208;28;20181;-79
2024/01/07 08:02:27;;;;;;;8.80;5.73;;;0.00;1.00;;;;;;5013744;28;20548;-79
2024/01/07 08:04:53;;;;;;;9.90;6.20;;;-0.10;1.00;;;;;;5015245;28;20285;-79
2024/01/07 08:07:18;;;;;;;9.33;6.10;;;-0.10;1.00;;;;;;5014979;28;20179;-79
2024/01/07 08:09:44;;;;;;;29.80;18.47;;;-0.10;1.00;;;;;;5015256;28;20174;-79
2024/01/07 08:12:11;;;;;;;8.30;5.90;;;-0.10;1.00;;;;;;5014698;28;20240;-80
2024/01/07 08:14:40;;;;;;;8.43;5.87;;;-0.10;1.00;;;;;;5014639;28;20214;-79
2024/01/07 08:17:07;;;;;;;7.73;5.83;;;-0.10;1.00;;;;;;5014440;28;20188;-80
2024/01/07 08:19:32;;;;;;;8.60;6.43;;;-0.20;1.00;;;;;;5006907;28;20205;-79
2024/01/07 08:21:58;;;;;;;9.57;7.77;;;-0.20;1.00;;;;;;5014715;28;20170;-79
2024/01/07 08:24:24;;;;;;;8.93;6.83;;;-0.20;1.00;;;;;;5017364;28;20201;-81
2024/01/07 08:26:49;;;;;;;12.03;9.23;;;-0.30;1.00;;;;;;5016869;28;20269;-79
2024/01/07 08:29:15;;;;;;;8.93;6.73;;;-0.40;1.00;;;;;;5014890;28;20182;-78
2024/01/07 08:31:42;;;;;;;10.43;6.20;;;-0.50;1.00;;;;;;5017630;28;20174;-79
2024/01/07 08:34:07;;;;;;;8.53;6.03;;;-0.50;1.30;;;;;;5017127;28;20733;-79
2024/01/07 08:36:33;;;;;;;7.70;5.53;;;-0.40;1.00;;;;;;5017194;28;20221;-78
2024/01/07 08:39:00;;;;;;;9.70;7.40;;;-0.50;24.00;;;;;;5016407;28;20284;-79
2024/01/07 08:41:25;;;;;;;7.47;5.57;;;-0.50;1.00;;;;;;5017753;28;20175;-79
2024/01/07 08:43:51;;;;;;;8.47;5.80;;;-0.50;26.60;;;;;;5016964;28;20714;-79
2024/01/07 08:46:17;;;;;;;8.63;6.17;;;-0.50;53.30;;;;;;5017179;28;20229;-80
2024/01/07 08:48:42;;;;;;;9.40;7.27;;;-0.40;94.50;;;;;;5017010;28;20186;-78
2024/01/07 08:51:08;;;;;;;10.07;6.17;;;-0.40;42.80;;;;;;5018079;28;20189;-79
2024/01/07 08:53:33;;;;;;;8.20;5.43;;;-0.50;50.50;;;;;;5018497;28;20196;-79
2024/01/07 08:55:59;;;;;;;10.53;6.50;;;-0.50;99.90;;;;;;5016865;28;20617;-78
2024/01/07 08:58:25;;;;;;;11.03;7.07;;;-0.50;99.90;;;;;;5017581;28;20202;-78
2024/01/07 09:00:50;;;;;;;17.43;10.90;;;-0.60;99.90;;;;;;5016445;28;20227;-78
2024/01/07 09:03:16;;;;;;;8.97;6.10;;;-0.50;99.90;;;;;;5016838;28;20165;-78
2024/01/07 09:05:42;;;;;;;19.17;12.07;;;-0.50;99.90;;;;;;5016746;28;20205;-78
2024/01/07 09:08:07;;;;;;;23.00;15.33;;;-0.50;99.90;;;;;;5016578;28;20256;-79
2024/01/07 09:10:33;;;;;;;22.00;13.03;;;-0.60;99.90;;;;;;5017560;28;20220;-78
2024/01/07 09:12:59;;;;;;;15.30;11.00;;;-0.70;99.90;;;;;;5017586;28;20228;-78
2024/01/07 09:15:25;;;;;;;11.63;6.90;;;-0.80;99.90;;;;;;5016154;28;20204;-79
2024/01/07 09:17:51;;;;;;;6.83;5.40;;;-0.80;99.90;;;;;;5015378;28;20192;-78
2024/01/07 09:20:17;;;;;;;7.27;5.20;;;-0.80;99.90;;;;;;5016638;28;20177;-79
2024/01/07 09:22:43;;;;;;;11.40;9.23;;;-0.80;99.90;;;;;;5016222;28;20210;-79
2024/01/07 09:25:09;;;;;;;6.40;4.30;;;-0.80;99.90;;;;;;5017358;28;20191;-78
2024/01/07 09:27:35;;;;;;;8.40;6.37;;;-0.80;99.90;;;;;;5016667;28;20179;-79
2024/01/07 09:30:01;;;;;;;8.53;5.50;;;-0.80;99.90;;;;;;5017150;28;20181;-79
2024/01/07 09:32:27;;;;;;;8.63;6.03;;;-0.80;99.90;;;;;;5017140;28;20200;-79
2024/01/07 09:34:53;;;;;;;8.43;6.20;;;-0.80;91.80;;;;;;5015995;28;20197;-79
2024/01/07 09:37:19;;;;;;;8.23;6.00;;;-0.80;99.90;;;;;;5017040;28;20180;-79
2024/01/07 09:39:45;;;;;;;9.03;5.70;;;-0.80;99.90;;;;;;5016480;28;20206;-78
2024/01/07 09:42:14;;;;;;;9.37;6.40;;;-0.90;99.90;;;;;;5015349;28;20185;-79
2024/01/07 09:44:43;;;;;;;7.60;5.30;;;-0.70;99.90;;;;;;5016760;28;20196;-79
2024/01/07 09:47:12;;;;;;;7.20;4.70;;;-0.70;99.90;;;;;;5016684;28;20172;-78
2024/01/07 09:49:39;;;;;;;8.47;6.10;;;-0.80;99.90;;;;;;5016673;28;20707;-79
2024/01/07 09:52:05;;;;;;;10.13;6.40;;;-0.80;99.90;;;;;;5016331;28;20168;-79
2024/01/07 09:54:31;;;;;;;8.50;5.90;;;-0.70;99.90;;;;;;5015335;28;20562;-80
2024/01/07 09:57:03;;;;;;;8.87;5.67;;;-0.80;99.90;;;;;;5014976;28;20668;-81
2024/01/07 09:59:30;;;;;;;9.60;6.30;;;-0.80;99.90;;;;;;5016111;28;20208;-78
2024/01/07 10:01:56;;;;;;;8.77;5.83;;;-0.80;99.90;;;;;;5015095;28;20176;-79
2024/01/07 10:04:23;;;;;;;9.03;6.10;;;-0.90;99.90;;;;;;5016109;28;20193;-79
2024/01/07 10:06:49;;;;;;;10.47;6.03;;;-0.90;99.90;;;;;;5015756;28;20184;-79
2024/01/07 10:09:17;;;;;;;10.33;5.70;;;-0.90;99.90;;;;;;5014670;28;20181;-79
2024/01/07 10:11:43;;;;;;;8.27;5.50;;;-0.80;99.90;;;;;;5014740;28;20263;-79
2024/01/07 10:14:09;;;;;;;7.47;4.87;;;-0.80;99.90;;;;;;5013531;28;20211;-79
2024/01/07 10:16:34;;;;;;;10.47;6.13;;;-0.90;99.90;;;;;;5015135;28;20184;-79
2024/01/07 10:19:00;;;;;;;8.63;5.90;;;-0.90;99.90;;;;;;5012346;28;20200;-86
2024/01/07 10:21:25;;;;;;;10.27;6.17;;;-0.90;99.90;;;;;;5013008;28;20180;-84
2024/01/07 10:24:08;;;;;;;9.33;4.87;;;-0.90;99.90;;;;;;5012630;28;20167;-81
2024/01/07 10:26:33;;;;;;;9.13;6.33;;;-0.80;99.90;;;;;;5009809;28;20223;-83
2024/01/07 10:28:59;;;;;;;10.53;6.83;;;-0.70;99.90;;;;;;5013789;28;20173;-82
2024/01/07 10:31:26;;;;;;;10.20;6.10;;;-0.80;99.90;;;;;;5012453;28;20303;-82
2024/01/07 10:33:52;;;;;;;9.17;6.33;;;-0.80;99.90;;;;;;5012075;28;20209;-82
2024/01/07 10:36:20;;;;;;;10.70;6.00;;;-0.80;99.90;;;;;;5013515;28;20207;-83
2024/01/07 10:38:46;;;;;;;7.67;5.40;;;-0.80;99.90;;;;;;5012189;28;20339;-82
2024/01/07 10:41:12;;;;;;;10.17;5.47;;;-0.90;99.90;;;;;;5011763;28;20205;-83
2024/01/07 10:43:40;;;;;;;8.37;5.10;;;-0.90;99.20;;;;;;5011730;28;20208;-82
2024/01/07 10:46:09;;;;;;;7.83;5.00;;;-0.80;9.70;;;;;;5036861;22;20236;-82
2024/01/07 10:48:37;;;;;;;8.17;4.80;;;-0.80;1.00;;;;;;5012671;28;20176;-87
2024/01/07 10:51:04;;;;;;;7.40;4.77;;;-0.80;33.70;;;;;;5012411;28;20177;-86
2024/01/07 10:53:37;;;;;;;8.00;4.97;;;-0.80;92.90;;;;;;5011749;28;20244;-84
2024/01/07 10:56:04;;;;;;;8.07;4.70;;;-0.80;14.10;;;;;;5011522;28;20194;-86
2024/01/07 10:58:36;;;;;;;8.47;4.53;;;-0.70;27.10;;;;;;5011334;28;20229;-86
2024/01/07 11:01:03;;;;;;;7.23;4.60;;;-0.80;1.00;;;;;;5012309;28;20174;-85
2024/01/07 11:03:55;;;;;;;8.70;4.43;;;-0.80;1.00;;;;;;5012653;28;20170;-85
2024/01/07 11:06:44;;;;;;;8.00;4.70;;;-0.90;12.30;;;;;;5012542;28;20202;-87
2024/01/07 11:09:31;;;;;;;6.57;4.93;;;-0.80;25.30;;;;;;5011321;28;20182;-85
2024/01/07 11:11:58;;;;;;;7.63;5.40;;;-0.90;19.60;;;;;;5012287;28;20177;-85
2024/01/07 11:14:51;;;;;;;6.60;4.67;;;-0.80;79.40;;;;;;5011306;28;20174;-84
2024/01/07 11:17:37;;;;;;;7.63;4.13;;;-0.70;1.00;;;;;;5012501;28;20184;-84
2024/01/07 11:20:06;;;;;;;7.30;4.10;;;-0.80;1.00;;;;;;5010988;28;20197;-82
2024/01/07 11:22:32;;;;;;;14.77;8.87;;;-0.70;1.00;;;;;;5011093;28;20178;-82
2024/01/07 11:24:59;;;;;;;59.03;26.03;;;-0.80;99.90;;;;;;5012244;28;20399;-82
2024/01/07 11:27:28;;;;;;;22.37;11.93;;;-0.90;1.00;;;;;;5012298;28;20182;-84
2024/01/07 11:30:07;;;;;;;11.33;6.20;;;-0.90;1.00;;;;;;5012091;28;20265;-82
2024/01/07 11:32:34;;;;;;;7.07;4.77;;;-0.80;1.00;;;;;;5010969;28;20180;-84
2024/01/07 11:35:01;;;;;;;5.27;4.00;;;-0.70;99.90;;;;;;5012225;28;20193;-83
2024/01/07 11:37:26;;;;;;;5.10;3.87;;;-0.70;99.90;;;;;;5011051;28;20267;-82
2024/01/07 11:39:55;;;;;;;6.03;4.30;;;-0.70;51.90;;;;;;5010983;28;20251;-79
2024/01/07 11:42:22;;;;;;;7.00;3.77;;;-0.60;99.90;;;;;;5011086;28;20180;-82
2024/01/07 11:44:53;;;;;;;6.00;4.40;;;-0.60;99.90;;;;;;5012060;28;20217;-82
2024/01/07 11:47:20;;;;;;;6.53;4.20;;;-0.60;1.00;;;;;;5011244;28;20672;-82
2024/01/07 11:49:47;;;;;;;5.03;3.63;;;-0.70;99.90;;;;;;5012080;28;20181;-83
2024/01/07 11:52:13;;;;;;;6.47;4.57;;;-0.60;1.00;;;;;;5011917;28;20179;-82
2024/01/07 11:54:39;;;;;;;5.33;4.10;;;-0.70;1.00;;;;;;5010702;28;20202;-82
2024/01/07 11:57:05;;;;;;;6.47;3.90;;;-0.60;1.00;;;;;;5012470;28;20184;-82
2024/01/07 11:59:31;;;;;;;7.57;4.20;;;-0.70;5.70;;;;;;5015670;28;20622;-83
2024/01/07 12:01:57;;;;;;;7.17;4.33;;;-0.70;99.90;;;;;;5014495;28;20178;-83
2024/01/07 12:04:22;;;;;;;5.03;3.93;;;-0.80;99.90;;;;;;5014590;28;20205;-83
2024/01/07 12:06:49;;;;;;;5.10;3.80;;;-0.80;1.00;;;;;;5014754;28;20230;-83
2024/01/07 12:09:15;;;;;;;6.17;3.27;;;-0.80;1.00;;;;;;5014571;28;20178;-83
2024/01/07 12:11:41;;;;;;;5.00;3.40;;;-0.80;1.00;;;;;;5015393;28;20178;-83
2024/01/07 12:14:09;;;;;;;5.17;3.67;;;-0.90;99.90;;;;;;5015679;28;20182;-83
2024/01/07 12:16:35;;;;;;;4.33;3.20;;;-0.80;1.00;;;;;;5014543;28;20177;-82
2024/01/07 12:19:00;;;;;;;5.00;3.40;;;-0.80;99.90;;;;;;5015850;28;20205;-82
2024/01/07 12:21:28;;;;;;;3.73;2.63;;;-0.70;1.00;;;;;;5015560;28;20655;-82
2024/01/07 12:23:54;;;;;;;5.83;3.33;;;-0.80;1.00;;;;;;5015486;28;20223;-82
2024/01/07 12:26:21;;;;;;;3.60;2.90;;;-0.90;99.90;;;;;;5015129;28;20196;-82
2024/01/07 12:28:59;;;;;;;4.07;2.70;;;-0.90;99.90;;;;;;5015499;28;20212;-82
2024/01/07 12:31:26;;;;;;;3.80;3.40;;;-0.80;11.50;;;;;;5015336;28;20201;-82
2024/01/07 12:33:52;;;;;;;3.67;2.90;;;-0.90;1.00;;;;;;5014332;28;20203;-82
2024/01/07 12:36:21;;;;;;;5.43;3.13;;;-1.10;99.90;;;;;;5015179;28;20206;-83
2024/01/07 12:38:47;;;;;;;2.77;2.40;;;-1.00;26.40;;;;;;5014968;28;20219;-82
2024/01/07 12:41:13;;;;;;;3.10;2.70;;;-0.90;99.90;;;;;;5014172;28;20212;-81